Time;durP1;ratioP1;P1;durP2;ratioP2;P2;SDS_P1;SDS_P2;PMS_P1;PMS_P2;Temp;Humidity;BMP_temperature;BMP_pressure;BME280_temperature;BME280_humidity;BME280_pressure;Samples;Min_cycle;Max_cycle;Signal;HPM_P1;HPM_P2
2022/09/10 00:01:16;;;;;;;2.43;1.23;;;13.10;99.90;;;;;;5070897;28;20464;-50
2022/09/10 00:03:43;;;;;;;2.30;0.90;;;13.00;99.90;;;;;;5070697;28;20945;-50
2022/09/10 00:06:11;;;;;;;1.83;1.13;;;13.30;99.90;;;;;;5070625;28;20512;-51
2022/09/10 00:08:40;;;;;;;2.17;1.10;;;13.30;99.90;;;;;;5070681;28;20554;-50
2022/09/10 00:11:10;;;;;;;1.30;0.70;;;13.10;99.90;;;;;;5070714;28;20439;-50
2022/09/10 00:13:38;;;;;;;1.40;0.80;;;13.20;99.90;;;;;;5070691;28;21022;-50
2022/09/10 00:16:07;;;;;;;1.20;0.70;;;13.40;99.90;;;;;;5070641;28;20452;-49
2022/09/10 00:18:35;;;;;;;1.25;0.75;;;13.60;99.90;;;;;;5069578;28;20519;-49
2022/09/10 00:21:06;;;;;;;1.50;0.80;;;13.70;99.90;;;;;;5070022;28;20674;-50
2022/09/10 00:23:33;;;;;;;2.07;0.90;;;13.80;99.90;;;;;;5070557;28;20480;-51
2022/09/10 00:26:10;;;;;;;2.13;1.00;;;13.80;99.90;;;;;;5070430;28;20465;-50
2022/09/10 00:28:37;;;;;;;1.77;0.90;;;13.70;99.90;;;;;;5070565;28;20440;-51
2022/09/10 00:31:05;;;;;;;1.43;0.90;;;13.80;99.90;;;;;;5069782;28;20498;-50
2022/09/10 00:33:31;;;;;;;1.35;0.80;;;13.90;99.90;;;;;;5070301;28;20532;-49
2022/09/10 00:35:58;;;;;;;1.43;1.00;;;13.80;99.90;;;;;;5070085;28;20617;-50
2022/09/10 00:38:27;;;;;;;2.13;0.90;;;13.70;99.90;;;;;;5069678;28;20529;-49
2022/09/10 00:40:54;;;;;;;1.30;0.90;;;13.60;99.90;;;;;;5069489;28;20446;-49
2022/09/10 00:43:22;;;;;;;1.63;0.80;;;13.80;99.90;;;;;;5069956;28;20658;-50
2022/09/10 00:45:52;;;;;;;1.50;0.87;;;13.70;99.90;;;;;;5069693;28;20448;-50
2022/09/10 00:48:25;;;;;;;1.70;1.00;;;13.70;99.90;;;;;;5069680;28;20437;-49
2022/09/10 00:50:52;;;;;;;1.70;0.83;;;13.80;99.90;;;;;;5069032;28;20484;-49
2022/09/10 00:53:24;;;;;;;1.73;0.82;;;13.80;99.90;;;;;;5070641;28;20505;-50
2022/09/10 00:55:55;;;;;;;2.53;0.82;;;13.70;99.90;;;;;;5070303;28;20246;-50
2022/09/10 00:58:26;;;;;;;1.87;1.07;;;13.70;99.90;;;;;;5070125;28;20748;-49
2022/09/10 01:00:56;;;;;;;2.90;1.47;;;13.60;99.90;;;;;;5073401;28;20482;-50
2022/09/10 01:03:24;;;;;;;1.50;0.90;;;13.40;99.90;;;;;;5074149;28;20444;-50
2022/09/10 01:05:51;;;;;;;3.10;1.10;;;13.60;99.90;;;;;;5073779;28;20453;-49
2022/09/10 01:08:19;;;;;;;1.70;0.87;;;13.80;99.90;;;;;;5073950;28;20531;-50
2022/09/10 01:11:00;;;;;;;1.42;0.77;;;13.90;99.90;;;;;;5073722;28;20538;-49
2022/09/10 01:13:43;;;;;;;1.40;0.90;;;13.80;99.90;;;;;;5074462;28;20618;-49
2022/09/10 01:16:19;;;;;;;2.07;0.67;;;13.50;99.90;;;;;;5074150;28;20468;-50
2022/09/10 01:18:55;;;;;;;1.63;0.80;;;13.30;99.90;;;;;;5071986;28;20463;-47
2022/09/10 01:21:24;;;;;;;1.40;0.80;;;13.10;99.90;;;;;;5073619;28;20488;-49
2022/09/10 01:24:15;;;;;;;1.23;0.90;;;13.10;99.90;;;;;;5073549;28;20501;-49
2022/09/10 01:27:05;;;;;;;1.43;0.90;;;13.10;99.90;;;;;;5073381;28;20551;-49
2022/09/10 01:29:38;;;;;;;1.63;0.90;;;13.40;99.90;;;;;;5072963;28;20443;-49
2022/09/10 01:32:11;;;;;;;2.73;1.07;;;13.50;99.90;;;;;;5073515;28;20456;-49
2022/09/10 01:34:44;;;;;;;1.37;0.80;;;13.50;99.90;;;;;;5073327;28;20436;-49
2022/09/10 01:37:16;;;;;;;3.13;0.73;;;13.50;99.90;;;;;;5073012;28;20509;-49
2022/09/10 01:39:44;;;;;;;1.60;0.67;;;13.20;99.90;;;;;;5072409;28;20896;-49
2022/09/10 01:42:11;;;;;;;3.53;1.90;;;13.20;99.90;;;;;;5073153;28;20793;-49
2022/09/10 01:44:45;;;;;;;1.30;0.70;;;12.90;99.90;;;;;;5073136;28;20885;-49
2022/09/10 01:47:21;;;;;;;1.20;0.60;;;13.00;99.90;;;;;;5073422;28;20439;-51
2022/09/10 01:50:03;;;;;;;1.10;0.60;;;13.00;99.90;;;;;;5072449;28;20464;-49
2022/09/10 01:52:37;;;;;;;2.07;0.47;;;13.10;99.90;;;;;;5071960;28;20452;-49
2022/09/10 01:55:14;;;;;;;1.30;0.60;;;12.90;99.90;;;;;;5073424;28;20457;-49
2022/09/10 01:57:47;;;;;;;1.10;0.60;;;13.10;99.90;;;;;;5072924;28;20448;-49
2022/09/10 02:00:17;;;;;;;1.80;1.08;;;13.30;99.90;;;;;;5072266;28;20443;-49
2022/09/10 02:02:49;;;;;;;1.17;0.70;;;13.40;99.90;;;;;;5072963;28;20232;-49
2022/09/10 02:05:19;;;;;;;1.40;0.80;;;13.00;99.90;;;;;;5072570;28;20997;-49
2022/09/10 02:07:48;;;;;;;1.20;0.70;;;12.20;99.90;;;;;;5072831;28;20894;-48
2022/09/10 02:10:15;;;;;;;3.58;1.00;;;11.60;99.90;;;;;;5071196;28;20810;-49
2022/09/10 02:12:42;;;;;;;2.30;0.80;;;11.80;99.90;;;;;;5072498;28;20659;-50
2022/09/10 02:15:11;;;;;;;1.97;0.90;;;12.10;99.90;;;;;;5072397;28;20638;-49
2022/09/10 02:17:40;;;;;;;1.30;0.70;;;12.40;99.90;;;;;;5071236;28;20523;-50
2022/09/10 02:20:12;;;;;;;2.27;0.67;;;12.60;99.90;;;;;;5072059;28;20536;-49
2022/09/10 02:22:42;;;;;;;1.50;1.10;;;12.70;99.90;;;;;;5072175;28;20510;-50
2022/09/10 02:25:11;;;;;;;1.23;0.70;;;12.70;99.90;;;;;;5072003;28;20886;-49
2022/09/10 02:27:38;;;;;;;1.70;0.60;;;12.70;99.90;;;;;;5071950;28;20606;-50
2022/09/10 02:30:06;;;;;;;1.30;0.90;;;12.80;99.90;;;;;;5071815;28;20475;-50
2022/09/10 02:32:33;;;;;;;2.03;1.00;;;12.40;99.90;;;;;;5072172;28;20485;-49
2022/09/10 02:35:02;;;;;;;3.70;1.60;;;12.50;99.90;;;;;;5071765;28;20488;-50
2022/09/10 02:37:29;;;;;;;1.93;1.03;;;12.50;99.90;;;;;;5072118;28;20510;-49
2022/09/10 02:39:56;;;;;;;1.27;0.80;;;12.60;99.90;;;;;;5071455;28;20472;-50
2022/09/10 02:42:22;;;;;;;1.30;0.70;;;12.80;99.90;;;;;;5071655;28;20198;-49
2022/09/10 02:44:49;;;;;;;1.50;0.60;;;12.60;99.90;;;;;;5071802;28;20499;-49
2022/09/10 02:47:17;;;;;;;1.40;0.97;;;12.80;99.90;;;;;;5071775;28;20852;-50
2022/09/10 02:49:44;;;;;;;1.70;0.70;;;12.80;99.90;;;;;;5071099;28;20449;-50
2022/09/10 02:52:12;;;;;;;2.50;0.90;;;12.60;99.90;;;;;;5070615;28;21016;-49
2022/09/10 02:54:40;;;;;;;1.43;1.00;;;12.30;99.90;;;;;;5071356;28;20472;-49
2022/09/10 02:57:07;;;;;;;1.10;0.70;;;12.40;99.90;;;;;;5071920;28;20444;-50
2022/09/10 02:59:34;;;;;;;1.40;0.80;;;12.50;99.90;;;;;;5070753;28;20983;-49
2022/09/10 03:02:01;;;;;;;1.93;0.60;;;12.40;99.90;;;;;;5071623;28;20472;-49
2022/09/10 03:04:28;;;;;;;1.20;0.70;;;12.50;99.90;;;;;;5071565;28;20441;-49
2022/09/10 03:06:55;;;;;;;1.30;0.80;;;12.50;99.90;;;;;;5071802;28;20476;-50
2022/09/10 03:09:26;;;;;;;1.63;1.00;;;12.50;99.90;;;;;;5070786;28;20447;-50
2022/09/10 03:11:53;;;;;;;2.07;1.23;;;12.60;99.90;;;;;;5071305;28;20524;-49
2022/09/10 03:14:22;;;;;;;1.40;0.90;;;12.40;99.90;;;;;;5071200;28;20484;-51
2022/09/10 03:16:50;;;;;;;1.07;0.60;;;12.50;99.90;;;;;;5071161;28;20515;-49
2022/09/10 03:19:17;;;;;;;4.82;1.33;;;12.70;99.90;;;;;;5069424;28;20544;-49
2022/09/10 03:21:46;;;;;;;2.17;1.20;;;12.80;99.90;;;;;;5070687;28;20910;-49
2022/09/10 03:24:13;;;;;;;2.30;1.30;;;12.60;99.90;;;;;;5071558;28;20431;-51
2022/09/10 03:26:42;;;;;;;2.30;1.20;;;12.50;99.90;;;;;;5071267;28;20477;-50
2022/09/10 03:29:09;;;;;;;2.17;1.13;;;12.50;99.90;;;;;;5071233;28;20305;-51
2022/09/10 03:31:36;;;;;;;1.27;0.90;;;12.90;99.90;;;;;;5071159;28;20498;-49
2022/09/10 03:34:03;;;;;;;1.30;0.80;;;12.70;99.90;;;;;;5071155;28;20823;-50
2022/09/10 03:36:31;;;;;;;1.50;0.90;;;12.90;99.90;;;;;;5070995;28;20465;-50
2022/09/10 03:38:58;;;;;;;1.88;0.88;;;13.00;99.90;;;;;;5070288;28;20481;-50
2022/09/10 03:41:27;;;;;;;1.40;0.67;;;13.10;99.90;;;;;;5071512;28;20304;-51
2022/09/10 03:43:56;;;;;;;2.47;1.60;;;12.90;99.90;;;;;;5070975;28;20444;-50
2022/09/10 03:46:23;;;;;;;2.23;1.70;;;12.60;99.90;;;;;;5070442;28;20214;-49
2022/09/10 03:48:52;;;;;;;1.60;1.40;;;12.70;99.90;;;;;;5070376;28;20463;-49
2022/09/10 03:51:19;;;;;;;2.10;1.30;;;12.80;99.90;;;;;;5070871;28;20457;-49
2022/09/10 03:53:46;;;;;;;2.47;1.27;;;12.70;99.90;;;;;;5070931;28;20777;-49
2022/09/10 03:56:14;;;;;;;1.30;1.10;;;13.10;99.90;;;;;;5071070;28;20539;-49
2022/09/10 03:58:41;;;;;;;1.73;1.20;;;13.20;99.90;;;;;;5070623;28;20469;-48
2022/09/10 04:01:10;;;;;;;2.13;1.03;;;13.30;99.90;;;;;;5071264;28;20455;-51
2022/09/10 04:03:37;;;;;;;1.23;0.70;;;13.00;99.90;;;;;;5071012;28;20866;-50
2022/09/10 04:06:04;;;;;;;2.40;0.90;;;12.70;99.90;;;;;;5071256;28;20275;-49
2022/09/10 04:08:31;;;;;;;2.43;1.10;;;12.60;99.90;;;;;;5071177;28;20921;-51
2022/09/10 04:11:02;;;;;;;1.87;0.90;;;12.40;99.90;;;;;;5070397;28;20506;-49
2022/09/10 04:13:30;;;;;;;1.77;0.70;;;12.30;99.90;;;;;;5070750;28;20917;-49
2022/09/10 04:15:59;;;;;;;1.20;0.80;;;12.40;99.90;;;;;;5070815;28;20469;-50
2022/09/10 04:18:28;;;;;;;1.97;1.03;;;12.50;99.90;;;;;;5069132;28;20453;-50
2022/09/10 04:20:55;;;;;;;1.95;1.40;;;12.60;99.90;;;;;;5070119;28;20499;-49
2022/09/10 04:23:22;;;;;;;1.20;0.90;;;12.80;99.90;;;;;;5070502;28;20199;-51
2022/09/10 04:25:49;;;;;;;1.93;0.70;;;12.50;99.90;;;;;;5070253;28;20468;-50
2022/09/10 04:28:16;;;;;;;1.73;1.10;;;12.60;99.90;;;;;;5071924;28;20438;-51
2022/09/10 04:30:45;;;;;;;1.92;1.10;;;12.80;99.90;;;;;;5069946;28;20228;-49
2022/09/10 04:33:12;;;;;;;1.90;0.90;;;12.50;99.90;;;;;;5070692;28;20571;-51
2022/09/10 04:35:43;;;;;;;1.70;1.00;;;12.60;99.90;;;;;;5073717;28;20707;-50
2022/09/10 04:38:10;;;;;;;1.53;1.20;;;12.60;99.90;;;;;;5074290;28;20456;-49
2022/09/10 04:40:38;;;;;;;1.33;0.87;;;12.60;99.90;;;;;;5073494;28;20494;-49
2022/09/10 04:43:05;;;;;;;1.85;0.90;;;12.50;99.90;;;;;;5074395;28;20444;-49
2022/09/10 04:45:33;;;;;;;1.70;1.00;;;12.50;99.90;;;;;;5074160;28;20214;-49
2022/09/10 04:48:00;;;;;;;1.60;1.00;;;12.50;99.90;;;;;;5073879;28;20849;-49
2022/09/10 04:50:27;;;;;;;1.30;1.10;;;12.40;99.90;;;;;;5072986;28;20468;-49
2022/09/10 04:52:55;;;;;;;3.23;1.23;;;12.10;99.90;;;;;;5073420;28;20513;-50
2022/09/10 04:55:24;;;;;;;1.95;0.82;;;12.30;99.90;;;;;;5073969;28;20535;-49
2022/09/10 04:57:51;;;;;;;3.47;0.90;;;12.50;99.90;;;;;;5074120;28;20206;-49
2022/09/10 05:00:19;;;;;;;1.20;0.77;;;12.50;99.90;;;;;;5073116;28;20533;-49
2022/09/10 05:02:46;;;;;;;2.20;0.77;;;12.60;99.90;;;;;;5073824;28;20509;-50
2022/09/10 05:05:13;;;;;;;2.10;1.00;;;12.40;99.90;;;;;;5073453;28;20472;-50
2022/09/10 05:07:40;;;;;;;1.60;0.95;;;12.70;99.90;;;;;;5073992;28;20452;-49
2022/09/10 05:10:09;;;;;;;2.28;0.80;;;12.70;99.90;;;;;;5073306;28;20202;-49
2022/09/10 05:12:37;;;;;;;2.60;1.00;;;12.90;99.90;;;;;;5073835;28;20697;-50
2022/09/10 05:15:06;;;;;;;2.33;1.70;;;12.80;99.90;;;;;;5073897;28;20467;-50
2022/09/10 05:17:33;;;;;;;4.18;3.08;;;12.90;99.90;;;;;;5071946;28;20495;-50
2022/09/10 05:20:01;;;;;;;2.63;1.70;;;12.80;99.90;;;;;;5073019;28;20228;-50
2022/09/10 05:22:29;;;;;;;3.27;1.30;;;12.90;99.90;;;;;;5073753;28;20476;-50
2022/09/10 05:24:57;;;;;;;3.33;3.13;;;13.00;99.90;;;;;;5073269;28;20984;-51
2022/09/10 05:27:25;;;;;;;3.03;2.13;;;12.90;99.90;;;;;;5073550;28;20201;-49
2022/09/10 05:29:52;;;;;;;2.30;1.53;;;13.00;99.90;;;;;;5072792;28;20477;-50
2022/09/10 05:32:19;;;;;;;5.77;1.43;;;13.10;99.90;;;;;;5073295;28;20428;-50
2022/09/10 05:34:47;;;;;;;1.87;0.97;;;13.00;99.90;;;;;;5073569;28;20498;-50
2022/09/10 05:37:14;;;;;;;1.80;1.13;;;12.90;99.90;;;;;;5073312;28;20931;-50
2022/09/10 05:39:42;;;;;;;1.53;0.80;;;12.50;99.90;;;;;;5072534;28;20472;-49
2022/09/10 05:42:09;;;;;;;1.87;0.83;;;12.40;99.90;;;;;;5072958;28;20437;-51
2022/09/10 05:44:37;;;;;;;2.30;1.20;;;12.60;99.90;;;;;;5073437;28;20445;-50
2022/09/10 05:47:05;;;;;;;3.00;1.57;;;12.80;99.90;;;;;;5073306;28;20478;-50
2022/09/10 05:49:32;;;;;;;2.23;1.83;;;13.00;99.90;;;;;;5072243;28;20453;-50
2022/09/10 05:51:59;;;;;;;2.33;1.83;;;12.90;99.90;;;;;;5072634;28;20982;-50
2022/09/10 05:54:26;;;;;;;1.80;1.50;;;12.90;99.90;;;;;;5072825;28;20441;-50
2022/09/10 05:56:53;;;;;;;2.67;1.77;;;12.70;99.90;;;;;;5073019;28;20453;-49
2022/09/10 05:59:20;;;;;;;1.70;1.33;;;12.50;99.90;;;;;;5072294;28;20511;-49
2022/09/10 06:01:50;;;;;;;2.27;1.17;;;12.60;99.90;;;;;;5072946;28;20447;-51
2022/09/10 06:04:17;;;;;;;1.70;1.60;;;12.80;99.90;;;;;;5072732;28;20435;-50
2022/09/10 06:06:45;;;;;;;2.90;1.53;;;12.90;99.90;;;;;;5072674;28;20479;-50
2022/09/10 06:09:12;;;;;;;3.23;2.13;;;13.00;99.90;;;;;;5072004;28;20455;-49
2022/09/10 06:11:39;;;;;;;1.60;1.30;;;13.10;99.90;;;;;;5072460;28;20432;-50
2022/09/10 06:14:07;;;;;;;1.85;1.10;;;12.80;99.90;;;;;;5072510;28;20442;-49
2022/09/10 06:16:34;;;;;;;3.23;1.20;;;12.60;99.90;;;;;;5072604;28;20308;-49
2022/09/10 06:19:03;;;;;;;3.50;1.83;;;12.60;99.90;;;;;;5069843;28;20518;-49
2022/09/10 06:21:30;;;;;;;4.37;1.60;;;12.40;99.90;;;;;;5072304;28;20545;-50
2022/09/10 06:23:57;;;;;;;2.60;1.40;;;12.30;99.90;;;;;;5072133;28;20490;-50
2022/09/10 06:26:24;;;;;;;1.80;1.43;;;12.40;99.90;;;;;;5072166;28;20465;-50
2022/09/10 06:28:51;;;;;;;1.80;1.30;;;12.40;99.90;;;;;;5071636;28;20498;-50
2022/09/10 06:31:18;;;;;;;2.10;1.50;;;12.60;99.90;;;;;;5072225;28;20437;-49
2022/09/10 06:33:47;;;;;;;2.37;1.80;;;12.70;99.90;;;;;;5072091;28;20217;-49
2022/09/10 06:36:16;;;;;;;2.33;1.93;;;12.60;99.90;;;;;;5072084;28;20456;-50
2022/09/10 06:38:43;;;;;;;1.53;1.30;;;12.80;99.90;;;;;;5072225;28;20510;-49
2022/09/10 06:41:13;;;;;;;2.20;1.60;;;13.00;99.90;;;;;;5073315;28;20472;-50
2022/09/10 06:43:41;;;;;;;3.97;1.60;;;13.10;99.90;;;;;;5074395;28;20928;-50
2022/09/10 06:46:12;;;;;;;1.60;1.20;;;13.20;99.90;;;;;;5072806;28;20217;-49
2022/09/10 06:48:40;;;;;;;2.92;1.50;;;13.10;99.90;;;;;;5071914;28;20460;-51
2022/09/10 06:51:08;;;;;;;2.20;1.93;;;13.10;99.90;;;;;;5071345;28;20194;-49
2022/09/10 06:53:37;;;;;;;3.20;1.40;;;13.20;99.90;;;;;;5071885;28;20473;-49
2022/09/10 06:56:07;;;;;;;2.47;2.20;;;13.20;99.90;;;;;;5071503;28;20454;-49
2022/09/10 06:58:35;;;;;;;4.17;3.10;;;13.20;99.90;;;;;;5071237;28;20497;-50
2022/09/10 07:01:07;;;;;;;6.07;3.40;;;13.10;99.90;;;;;;5071013;28;20519;-49
2022/09/10 07:03:35;;;;;;;3.03;1.30;;;13.10;99.90;;;;;;5071053;28;20810;-50
2022/09/10 07:06:06;;;;;;;2.63;1.60;;;13.00;99.90;;;;;;5071430;28;20472;-49
2022/09/10 07:08:34;;;;;;;2.60;1.60;;;13.20;99.90;;;;;;5071081;28;20195;-49
2022/09/10 07:11:04;;;;;;;1.97;1.73;;;13.30;99.90;;;;;;5069769;28;20536;-49
2022/09/10 07:13:31;;;;;;;6.50;2.30;;;13.40;99.90;;;;;;5071375;28;20449;-50
2022/09/10 07:15:58;;;;;;;3.97;1.83;;;13.60;99.90;;;;;;5071532;28;20492;-49
2022/09/10 07:18:27;;;;;;;4.07;1.90;;;13.60;99.90;;;;;;5070066;28;20862;-50
2022/09/10 07:21:05;;;;;;;2.13;1.87;;;13.40;99.90;;;;;;5069869;28;20479;-50
2022/09/10 07:23:32;;;;;;;1.70;1.50;;;13.50;99.90;;;;;;5071194;28;20440;-50
2022/09/10 07:26:05;;;;;;;19.83;13.97;;;13.20;99.90;;;;;;5071786;28;20535;-51
2022/09/10 07:28:32;;;;;;;5.97;4.07;;;13.40;99.90;;;;;;5071344;28;20447;-50
2022/09/10 07:30:59;;;;;;;3.58;2.70;;;13.20;99.90;;;;;;5070514;28;20273;-49
2022/09/10 07:33:26;;;;;;;2.13;1.50;;;13.20;99.90;;;;;;5070262;28;20649;-49
2022/09/10 07:35:53;;;;;;;1.80;1.50;;;13.30;99.90;;;;;;5071155;28;20468;-50
2022/09/10 07:38:20;;;;;;;1.70;1.23;;;13.20;99.90;;;;;;5070710;28;20822;-51
2022/09/10 07:40:48;;;;;;;2.70;1.37;;;13.10;99.90;;;;;;5068706;28;20476;-50
2022/09/10 07:43:16;;;;;;;2.67;1.63;;;13.30;99.90;;;;;;5069569;28;20898;-49
2022/09/10 07:45:43;;;;;;;1.47;0.90;;;13.00;99.90;;;;;;5069723;28;20476;-50
2022/09/10 07:48:12;;;;;;;1.93;1.40;;;13.10;99.90;;;;;;5069519;28;20941;-51
2022/09/10 07:50:39;;;;;;;3.23;1.77;;;13.20;99.90;;;;;;5068063;28;20687;-51
2022/09/10 07:53:06;;;;;;;1.43;1.17;;;13.50;99.90;;;;;;5069569;28;20451;-50
2022/09/10 07:55:33;;;;;;;1.83;1.20;;;13.40;99.90;;;;;;5069224;28;20454;-49
2022/09/10 07:57:59;;;;;;;1.60;1.20;;;13.50;99.90;;;;;;5069191;28;20914;-49
2022/09/10 08:00:28;;;;;;;1.60;1.33;;;13.50;99.90;;;;;;5069689;28;21059;-49
2022/09/10 08:02:55;;;;;;;1.83;1.00;;;13.60;99.90;;;;;;5068993;28;20511;-52
2022/09/10 08:05:23;;;;;;;2.22;1.27;;;13.90;99.90;;;;;;5069609;28;20265;-49
2022/09/10 08:07:53;;;;;;;2.10;1.27;;;14.10;99.90;;;;;;5068914;28;20203;-50
2022/09/10 08:10:20;;;;;;;3.45;1.10;;;14.10;99.90;;;;;;5071914;28;20449;-49
2022/09/10 08:12:48;;;;;;;2.42;1.40;;;14.20;99.90;;;;;;5072692;28;20229;-50
2022/09/10 08:15:16;;;;;;;1.80;1.30;;;14.10;99.90;;;;;;5072667;28;20217;-50
2022/09/10 08:17:44;;;;;;;2.30;1.57;;;14.20;99.90;;;;;;5071541;28;20455;-53
2022/09/10 08:20:12;;;;;;;2.43;1.67;;;14.00;99.90;;;;;;5073323;28;20568;-49
2022/09/10 08:22:39;;;;;;;2.07;1.47;;;14.00;99.90;;;;;;5073936;28;20869;-50
2022/09/10 08:25:07;;;;;;;1.67;1.13;;;13.70;99.90;;;;;;5074310;28;20507;-49
2022/09/10 08:27:34;;;;;;;2.30;1.07;;;13.80;99.90;;;;;;5074810;28;20472;-49
2022/09/10 08:30:01;;;;;;;1.30;0.80;;;14.00;99.90;;;;;;5073847;28;20442;-51
2022/09/10 08:32:28;;;;;;;1.70;1.07;;;13.90;99.90;;;;;;5074531;28;20960;-49
2022/09/10 08:34:56;;;;;;;2.07;1.33;;;13.90;99.90;;;;;;5074460;28;20498;-49
2022/09/10 08:37:24;;;;;;;5.93;3.78;;;14.00;99.90;;;;;;5073805;28;20477;-50
2022/09/10 08:39:51;;;;;;;1.70;1.17;;;13.90;99.90;;;;;;5070762;28;20743;-49
2022/09/10 08:42:21;;;;;;;1.70;1.20;;;13.90;99.90;;;;;;5071928;28;20881;-51
2022/09/10 08:44:52;;;;;;;1.40;1.13;;;13.80;99.90;;;;;;5071096;28;20452;-51
2022/09/10 08:47:29;;;;;;;1.70;1.50;;;14.00;99.90;;;;;;5072658;28;20441;-50
2022/09/10 08:50:01;;;;;;;2.20;1.60;;;14.10;99.90;;;;;;5056126;28;20425;-50
2022/09/10 08:52:33;;;;;;;2.70;1.50;;;14.30;99.90;;;;;;5072110;28;20493;-50
2022/09/10 08:55:09;;;;;;;5.43;1.80;;;14.40;99.90;;;;;;5072805;28;20463;-48
2022/09/10 08:57:43;;;;;;;2.17;1.20;;;14.40;99.90;;;;;;5074037;28;20452;-49
2022/09/10 09:00:15;;;;;;;2.25;1.48;;;14.40;99.90;;;;;;5073107;28;20473;-49
2022/09/10 09:02:50;;;;;;;4.00;2.30;;;14.60;99.90;;;;;;5073049;28;20778;-49
2022/09/10 09:05:21;;;;;;;1.90;1.00;;;14.60;99.90;;;;;;5072291;28;20464;-50
2022/09/10 09:07:49;;;;;;;2.07;1.27;;;14.70;99.90;;;;;;5072180;28;20479;-49
2022/09/10 09:10:32;;;;;;;1.40;1.00;;;14.50;99.90;;;;;;5072049;28;20461;-49
2022/09/10 09:13:39;;;;;;;1.60;1.10;;;14.20;99.90;;;;;;5072607;28;20451;-49
2022/09/10 09:16:20;;;;;;;2.47;1.00;;;14.00;99.90;;;;;;4996697;28;20577;-48
2022/09/10 09:19:13;;;;;;;4.90;1.40;;;14.30;99.90;;;;;;5070701;28;20763;-47
2022/09/10 09:21:50;;;;;;;1.43;1.10;;;14.60;99.90;;;;;;5072587;28;20476;-49
2022/09/10 09:24:23;;;;;;;6.40;1.80;;;14.70;99.90;;;;;;5073993;28;21000;-49
2022/09/10 09:26:54;;;;;;;2.10;1.30;;;14.80;99.90;;;;;;5074150;28;20498;-48
2022/09/10 09:29:25;;;;;;;2.43;1.17;;;15.00;99.90;;;;;;5072889;28;20198;-50
2022/09/10 09:31:56;;;;;;;2.10;1.30;;;15.10;99.90;;;;;;5071388;28;20466;-49
2022/09/10 09:34:32;;;;;;;1.87;1.13;;;15.10;99.90;;;;;;5072664;28;20472;-50
2022/09/10 09:37:03;;;;;;;1.33;0.93;;;14.90;99.90;;;;;;5073044;28;20535;-49
2022/09/10 09:39:37;;;;;;;4.07;1.20;;;14.80;99.90;;;;;;5072149;28;20965;-48
2022/09/10 09:42:12;;;;;;;6.80;1.70;;;15.00;99.90;;;;;;5072692;28;21053;-48
2022/09/10 09:44:46;;;;;;;6.57;2.00;;;15.40;99.90;;;;;;5072415;28;20432;-50
2022/09/10 09:47:13;;;;;;;3.83;1.63;;;15.80;99.90;;;;;;5073177;28;20476;-49
2022/09/10 09:49:40;;;;;;;4.60;1.37;;;16.00;99.90;;;;;;5071925;28;20436;-51
2022/09/10 09:52:20;;;;;;;2.00;1.17;;;16.00;99.90;;;;;;5073218;28;20476;-48
2022/09/10 09:54:52;;;;;;;1.73;1.27;;;15.80;99.90;;;;;;5072206;28;20502;-49
2022/09/10 09:57:20;;;;;;;2.40;1.33;;;15.90;99.90;;;;;;5072227;28;20868;-49
2022/09/10 09:59:48;;;;;;;2.27;1.20;;;15.80;99.90;;;;;;5072267;28;20519;-49
2022/09/10 10:02:18;;;;;;;1.50;1.10;;;15.80;99.90;;;;;;5072261;28;20829;-49
2022/09/10 10:04:56;;;;;;;2.43;1.30;;;15.80;99.90;;;;;;5072738;28;20968;-49
2022/09/10 10:07:31;;;;;;;2.30;1.40;;;15.80;99.90;;;;;;5072553;28;20438;-49
2022/09/10 10:09:59;;;;;;;4.03;1.37;;;15.60;99.90;;;;;;5072115;28;20436;-49
2022/09/10 10:12:30;;;;;;;12.17;2.40;;;15.70;99.90;;;;;;5072554;28;20525;-49
2022/09/10 10:14:57;;;;;;;12.73;2.00;;;15.70;99.90;;;;;;5071512;28;20973;-50
2022/09/10 10:17:34;;;;;;;4.87;1.60;;;15.90;99.90;;;;;;5069514;28;20838;-48
2022/09/10 10:20:07;;;;;;;3.40;1.20;;;15.90;99.90;;;;;;5070190;28;20927;-49
2022/09/10 10:22:36;;;;;;;4.13;1.30;;;16.00;99.90;;;;;;5070823;28;20221;-50
2022/09/10 10:25:06;;;;;;;2.97;1.00;;;16.00;99.90;;;;;;5070528;28;20504;-47
2022/09/10 10:27:36;;;;;;;3.27;1.00;;;16.10;99.90;;;;;;5072233;28;20210;-50
2022/09/10 10:30:21;;;;;;;5.20;1.43;;;16.00;99.90;;;;;;5070865;28;20480;-49
2022/09/10 10:32:53;;;;;;;4.90;1.30;;;16.00;99.90;;;;;;5071605;28;20543;-49
2022/09/10 10:35:31;;;;;;;3.20;1.33;;;16.10;99.90;;;;;;5071987;28;20214;-49
2022/09/10 10:38:25;;;;;;;3.30;1.40;;;16.10;99.90;;;;;;5071998;28;20940;-50
2022/09/10 10:41:04;;;;;;;1.57;1.30;;;16.10;99.90;;;;;;5071347;28;20504;-48
2022/09/10 10:43:42;;;;;;;2.30;1.50;;;16.10;99.90;;;;;;5072359;28;20448;-48
2022/09/10 10:46:16;;;;;;;2.53;1.40;;;16.10;99.90;;;;;;5071996;28;20531;-49
2022/09/10 10:48:58;;;;;;;1.77;1.30;;;16.10;99.90;;;;;;5071689;28;20488;-48
2022/09/10 10:51:40;;;;;;;2.20;1.60;;;16.10;99.90;;;;;;5071907;28;20281;-49
2022/09/10 10:54:27;;;;;;;4.40;3.77;;;15.90;99.90;;;;;;5071203;28;20862;-49
2022/09/10 10:57:01;;;;;;;5.27;4.23;;;16.10;99.90;;;;;;5071975;28;20468;-49
2022/09/10 10:59:43;;;;;;;2.87;1.87;;;16.10;99.90;;;;;;5071080;28;20495;-49
2022/09/10 11:02:15;;;;;;;1.65;1.35;;;16.20;99.90;;;;;;5071565;28;20504;-49
2022/09/10 11:04:46;;;;;;;1.60;1.20;;;16.10;99.90;;;;;;5072003;28;20191;-48
2022/09/10 11:07:19;;;;;;;2.83;1.50;;;16.20;99.90;;;;;;5071609;28;20525;-49
2022/09/10 11:09:53;;;;;;;2.10;1.10;;;16.10;99.90;;;;;;5071149;28;20440;-50
2022/09/10 11:12:27;;;;;;;1.50;1.38;;;16.10;99.90;;;;;;5071338;28;20507;-48
2022/09/10 11:14:58;;;;;;;1.57;1.17;;;16.10;99.90;;;;;;5071145;28;20245;-49
2022/09/10 11:17:33;;;;;;;1.83;1.57;;;16.00;99.90;;;;;;5069591;28;20437;-51
2022/09/10 11:20:09;;;;;;;2.40;1.27;;;16.00;99.90;;;;;;5070676;28;20433;-51
2022/09/10 11:22:41;;;;;;;1.93;1.03;;;16.10;99.90;;;;;;5071003;28;20253;-48
2022/09/10 11:25:18;;;;;;;2.20;1.83;;;16.00;99.90;;;;;;5071162;28;20526;-50
2022/09/10 11:27:49;;;;;;;1.80;1.30;;;15.80;99.90;;;;;;5071121;28;20435;-50
2022/09/10 11:30:18;;;;;;;1.80;1.57;;;16.00;99.90;;;;;;5070683;28;20888;-50
2022/09/10 11:32:49;;;;;;;3.97;1.80;;;15.80;99.90;;;;;;5071059;28;20502;-48
2022/09/10 11:35:21;;;;;;;2.17;1.93;;;15.80;99.90;;;;;;5071009;28;20460;-49
2022/09/10 11:38:03;;;;;;;3.57;2.23;;;15.50;99.90;;;;;;5071071;28;20448;-48
2022/09/10 11:40:38;;;;;;;2.50;2.17;;;15.60;99.90;;;;;;5070532;28;20539;-48
2022/09/10 11:43:12;;;;;;;2.53;1.73;;;15.70;99.90;;;;;;5070578;28;20503;-50
2022/09/10 11:45:47;;;;;;;2.47;1.97;;;15.80;99.90;;;;;;5070844;28;20989;-48
2022/09/10 11:48:24;;;;;;;2.17;1.97;;;15.80;99.90;;;;;;5070951;28;20429;-49
2022/09/10 11:50:56;;;;;;;3.05;2.70;;;15.70;99.90;;;;;;5070685;28;20472;-50
2022/09/10 11:53:25;;;;;;;2.00;1.40;;;15.80;99.90;;;;;;5070985;28;20232;-49
2022/09/10 11:56:27;;;;;;;2.10;1.50;;;15.60;99.90;;;;;;5070260;28;20815;-50
2022/09/10 11:59:08;;;;;;;3.10;1.20;;;15.70;99.90;;;;;;5045383;28;20494;-49
2022/09/10 12:01:51;;;;;;;1.73;1.30;;;15.60;99.90;;;;;;5070676;28;20474;-49
2022/09/10 12:04:41;;;;;;;1.23;0.80;;;15.70;99.90;;;;;;5070811;28;20202;-49
2022/09/10 12:07:17;;;;;;;2.03;0.77;;;15.60;99.90;;;;;;5070925;28;20444;-48
2022/09/10 12:09:55;;;;;;;1.27;0.70;;;15.50;99.90;;;;;;5070148;28;20450;-48
2022/09/10 12:12:31;;;;;;;1.10;0.70;;;15.40;99.90;;;;;;5071184;28;20498;-48
2022/09/10 12:14:58;;;;;;;3.73;0.83;;;15.30;99.90;;;;;;5070596;28;20459;-48
2022/09/10 12:17:30;;;;;;;1.73;0.70;;;15.20;99.90;;;;;;5069142;28;20539;-48
2022/09/10 12:20:00;;;;;;;1.60;0.80;;;15.10;99.90;;;;;;5070093;28;21003;-48
2022/09/10 12:22:30;;;;;;;1.70;1.30;;;15.00;99.90;;;;;;5070390;28;21001;-48
2022/09/10 12:25:02;;;;;;;3.53;2.57;;;15.00;99.90;;;;;;5070586;28;20492;-48
2022/09/10 12:27:46;;;;;;;3.20;1.23;;;15.00;99.90;;;;;;5070658;28;20448;-48
2022/09/10 12:30:57;;;;;;;4.50;1.10;;;15.10;99.90;;;;;;5070246;28;20478;-47
2022/09/10 12:34:00;;;;;;;2.80;1.03;;;15.40;99.90;;;;;;5051138;28;20607;-49
2022/09/10 12:37:16;;;;;;;4.13;2.97;;;15.30;99.90;;;;;;5055184;28;20536;-49
2022/09/10 12:39:44;;;;;;;1.70;1.60;;;15.10;99.90;;;;;;5069793;28;20520;-50
2022/09/10 12:42:31;;;;;;;1.92;1.60;;;15.10;99.90;;;;;;5070100;28;20979;-50
2022/09/10 12:44:59;;;;;;;2.17;2.00;;;15.20;99.90;;;;;;5070520;28;20217;-48
2022/09/10 12:47:54;;;;;;;2.88;1.95;;;15.10;99.90;;;;;;5070196;28;20436;-49
2022/09/10 12:50:32;;;;;;;14.75;13.25;;;15.00;99.90;;;;;;5069797;28;20207;-49
2022/09/10 12:53:30;;;;;;;7.22;6.53;;;15.10;99.90;;;;;;5070220;28;20196;-49
2022/09/10 12:56:28;;;;;;;6.83;4.63;;;15.00;99.90;;;;;;5072305;28;20321;-48
2022/09/10 12:59:09;;;;;;;1.90;1.50;;;15.00;99.90;;;;;;5073509;28;20476;-49
2022/09/10 13:01:45;;;;;;;2.90;2.50;;;15.10;99.90;;;;;;5074005;28;20972;-48
2022/09/10 13:04:24;;;;;;;3.55;3.25;;;15.00;99.90;;;;;;5073520;28;20442;-49
2022/09/10 13:06:55;;;;;;;2.30;1.00;;;14.90;99.90;;;;;;5073606;28;20305;-48